sensor_id;sensor_type;location;lat;lon;timestamp;P1;durP1;ratioP1;P2;durP2;ratioP2
6997;SDS011;3539;47.982;12.238;2022-07-24T00:00:20;11.93;;;10.93;;
6997;SDS011;3539;47.982;12.238;2022-07-24T00:02:47;12.43;;;11.33;;
6997;SDS011;3539;47.982;12.238;2022-07-24T00:05:14;12.17;;;10.97;;
6997;SDS011;3539;47.982;12.238;2022-07-24T00:07:40;12.47;;;11.27;;
6997;SDS011;3539;47.982;12.238;2022-07-24T00:10:09;12.23;;;11.03;;
6997;SDS011;3539;47.982;12.238;2022-07-24T00:12:36;12.90;;;11.60;;
6997;SDS011;3539;47.982;12.238;2022-07-24T00:15:04;13.80;;;12.37;;
6997;SDS011;3539;47.982;12.238;2022-07-24T00:17:32;12.63;;;11.33;;
6997;SDS011;3539;47.982;12.238;2022-07-24T00:19:59;12.93;;;11.10;;
6997;SDS011;3539;47.982;12.238;2022-07-24T00:22:26;16.20;;;11.40;;
6997;SDS011;3539;47.982;12.238;2022-07-24T00:24:53;12.20;;;10.97;;
6997;SDS011;3539;47.982;12.238;2022-07-24T00:27:19;12.87;;;11.67;;
6997;SDS011;3539;47.982;12.238;2022-07-24T00:29:46;13.20;;;12.00;;
6997;SDS011;3539;47.982;12.238;2022-07-24T00:32:13;13.53;;;11.87;;
6997;SDS011;3539;47.982;12.238;2022-07-24T00:34:41;13.30;;;12.00;;
6997;SDS011;3539;47.982;12.238;2022-07-24T00:37:08;14.17;;;12.70;;
6997;SDS011;3539;47.982;12.238;2022-07-24T00:39:35;12.80;;;11.40;;
6997;SDS011;3539;47.982;12.238;2022-07-24T00:42:02;11.87;;;10.60;;
6997;SDS011;3539;47.982;12.238;2022-07-24T00:44:29;11.07;;;9.97;;
6997;SDS011;3539;47.982;12.238;2022-07-24T00:46:55;11.97;;;10.93;;
6997;SDS011;3539;47.982;12.238;2022-07-24T00:49:22;12.20;;;10.90;;
6997;SDS011;3539;47.982;12.238;2022-07-24T00:51:51;11.80;;;10.63;;
6997;SDS011;3539;47.982;12.238;2022-07-24T00:54:19;12.23;;;11.03;;
6997;SDS011;3539;47.982;12.238;2022-07-24T00:56:49;12.33;;;11.23;;
6997;SDS011;3539;47.982;12.238;2022-07-24T00:59:17;12.70;;;11.53;;
6997;SDS011;3539;47.982;12.238;2022-07-24T01:01:44;13.60;;;11.40;;
6997;SDS011;3539;47.982;12.238;2022-07-24T01:04:11;10.77;;;9.77;;
6997;SDS011;3539;47.982;12.238;2022-07-24T01:06:39;11.20;;;10.10;;
6997;SDS011;3539;47.982;12.238;2022-07-24T01:09:07;14.63;;;9.77;;
6997;SDS011;3539;47.982;12.238;2022-07-24T01:11:35;10.90;;;9.90;;
6997;SDS011;3539;47.982;12.238;2022-07-24T01:14:02;9.97;;;8.87;;
6997;SDS011;3539;47.982;12.238;2022-07-24T01:16:28;10.50;;;9.60;;
6997;SDS011;3539;47.982;12.238;2022-07-24T01:18:55;16.10;;;10.73;;
6997;SDS011;3539;47.982;12.238;2022-07-24T01:21:23;11.60;;;10.40;;
6997;SDS011;3539;47.982;12.238;2022-07-24T01:23:50;11.60;;;10.47;;
6997;SDS011;3539;47.982;12.238;2022-07-24T01:26:17;12.97;;;11.10;;
6997;SDS011;3539;47.982;12.238;2022-07-24T01:28:45;11.53;;;10.43;;
6997;SDS011;3539;47.982;12.238;2022-07-24T01:31:12;12.07;;;10.80;;
6997;SDS011;3539;47.982;12.238;2022-07-24T01:33:38;11.57;;;10.53;;
6997;SDS011;3539;47.982;12.238;2022-07-24T01:36:05;12.50;;;11.20;;
6997;SDS011;3539;47.982;12.238;2022-07-24T01:38:34;12.07;;;10.87;;
6997;SDS011;3539;47.982;12.238;2022-07-24T01:41:00;12.07;;;10.87;;
6997;SDS011;3539;47.982;12.238;2022-07-24T01:43:27;13.17;;;11.83;;
6997;SDS011;3539;47.982;12.238;2022-07-24T01:45:54;14.47;;;13.17;;
6997;SDS011;3539;47.982;12.238;2022-07-24T01:48:21;12.60;;;10.83;;
6997;SDS011;3539;47.982;12.238;2022-07-24T01:50:47;12.90;;;11.60;;
6997;SDS011;3539;47.982;12.238;2022-07-24T01:53:14;12.13;;;10.93;;
6997;SDS011;3539;47.982;12.238;2022-07-24T01:55:43;12.97;;;11.00;;
6997;SDS011;3539;47.982;12.238;2022-07-24T01:58:09;11.80;;;10.60;;
6997;SDS011;3539;47.982;12.238;2022-07-24T02:00:36;12.07;;;10.80;;
6997;SDS011;3539;47.982;12.238;2022-07-24T02:03:03;12.57;;;11.37;;
6997;SDS011;3539;47.982;12.238;2022-07-24T02:05:30;12.00;;;10.87;;
6997;SDS011;3539;47.982;12.238;2022-07-24T02:07:57;12.10;;;10.90;;
6997;SDS011;3539;47.982;12.238;2022-07-24T02:10:25;11.63;;;10.40;;
6997;SDS011;3539;47.982;12.238;2022-07-24T02:12:54;11.80;;;10.60;;
6997;SDS011;3539;47.982;12.238;2022-07-24T02:15:22;12.70;;;11.27;;
6997;SDS011;3539;47.982;12.238;2022-07-24T02:17:49;11.90;;;10.70;;
6997;SDS011;3539;47.982;12.238;2022-07-24T02:20:17;13.00;;;11.80;;
6997;SDS011;3539;47.982;12.238;2022-07-24T02:22:45;14.57;;;13.27;;
6997;SDS011;3539;47.982;12.238;2022-07-24T02:25:12;14.73;;;12.10;;
6997;SDS011;3539;47.982;12.238;2022-07-24T02:27:39;13.70;;;12.33;;
6997;SDS011;3539;47.982;12.238;2022-07-24T02:30:08;14.13;;;12.83;;
6997;SDS011;3539;47.982;12.238;2022-07-24T02:32:36;14.93;;;13.52;;
6997;SDS011;3539;47.982;12.238;2022-07-24T02:35:04;12.70;;;11.50;;
6997;SDS011;3539;47.982;12.238;2022-07-24T02:37:31;14.47;;;11.37;;
6997;SDS011;3539;47.982;12.238;2022-07-24T02:39:58;13.43;;;11.67;;
6997;SDS011;3539;47.982;12.238;2022-07-24T02:42:25;12.80;;;11.60;;
6997;SDS011;3539;47.982;12.238;2022-07-24T02:44:51;15.00;;;12.07;;
6997;SDS011;3539;47.982;12.238;2022-07-24T02:47:19;12.97;;;11.67;;
6997;SDS011;3539;47.982;12.238;2022-07-24T02:49:46;12.47;;;11.33;;
6997;SDS011;3539;47.982;12.238;2022-07-24T02:52:13;12.10;;;10.90;;
6997;SDS011;3539;47.982;12.238;2022-07-24T02:54:40;14.10;;;11.17;;
6997;SDS011;3539;47.982;12.238;2022-07-24T02:57:06;12.53;;;11.23;;
6997;SDS011;3539;47.982;12.238;2022-07-24T02:59:33;12.33;;;11.03;;
6997;SDS011;3539;47.982;12.238;2022-07-24T03:02:00;12.57;;;11.37;;
6997;SDS011;3539;47.982;12.238;2022-07-24T03:04:28;11.77;;;10.67;;
6997;SDS011;3539;47.982;12.238;2022-07-24T03:06:55;11.30;;;10.30;;
6997;SDS011;3539;47.982;12.238;2022-07-24T03:09:21;10.90;;;9.80;;
6997;SDS011;3539;47.982;12.238;2022-07-24T03:11:48;11.77;;;9.40;;
6997;SDS011;3539;47.982;12.238;2022-07-24T03:14:15;11.03;;;10.13;;
6997;SDS011;3539;47.982;12.238;2022-07-24T03:16:42;11.03;;;9.93;;
6997;SDS011;3539;47.982;12.238;2022-07-24T03:19:08;11.30;;;10.20;;
6997;SDS011;3539;47.982;12.238;2022-07-24T03:21:36;11.57;;;10.47;;
6997;SDS011;3539;47.982;12.238;2022-07-24T03:24:03;13.40;;;10.00;;
6997;SDS011;3539;47.982;12.238;2022-07-24T03:26:30;10.83;;;9.93;;
6997;SDS011;3539;47.982;12.238;2022-07-24T03:28:57;11.27;;;10.17;;
6997;SDS011;3539;47.982;12.238;2022-07-24T03:31:23;10.60;;;9.60;;
6997;SDS011;3539;47.982;12.238;2022-07-24T03:33:50;10.90;;;9.90;;
6997;SDS011;3539;47.982;12.238;2022-07-24T03:36:17;11.50;;;10.40;;
6997;SDS011;3539;47.982;12.238;2022-07-24T03:38:45;13.60;;;11.30;;
6997;SDS011;3539;47.982;12.238;2022-07-24T03:41:11;13.60;;;12.23;;
6997;SDS011;3539;47.982;12.238;2022-07-24T03:43:38;12.50;;;11.37;;
6997;SDS011;3539;47.982;12.238;2022-07-24T03:46:05;11.93;;;10.70;;
6997;SDS011;3539;47.982;12.238;2022-07-24T03:48:32;11.67;;;10.63;;
6997;SDS011;3539;47.982;12.238;2022-07-24T03:50:58;12.40;;;11.27;;
6997;SDS011;3539;47.982;12.238;2022-07-24T03:53:25;11.97;;;10.80;;
6997;SDS011;3539;47.982;12.238;2022-07-24T03:55:53;12.67;;;11.37;;
6997;SDS011;3539;47.982;12.238;2022-07-24T03:58:20;13.43;;;12.13;;
6997;SDS011;3539;47.982;12.238;2022-07-24T04:00:47;13.83;;;12.47;;
6997;SDS011;3539;47.982;12.238;2022-07-24T04:03:13;13.50;;;12.10;;
6997;SDS011;3539;47.982;12.238;2022-07-24T04:05:40;13.77;;;12.27;;
6997;SDS011;3539;47.982;12.238;2022-07-24T04:08:07;13.90;;;12.50;;
6997;SDS011;3539;47.982;12.238;2022-07-24T04:10:33;12.30;;;11.10;;
6997;SDS011;3539;47.982;12.238;2022-07-24T04:13:01;12.67;;;11.40;;
6997;SDS011;3539;47.982;12.238;2022-07-24T04:15:28;13.20;;;11.90;;
6997;SDS011;3539;47.982;12.238;2022-07-24T04:17:55;12.77;;;11.67;;
6997;SDS011;3539;47.982;12.238;2022-07-24T04:20:22;11.53;;;10.43;;
6997;SDS011;3539;47.982;12.238;2022-07-24T04:22:49;11.50;;;10.50;;
6997;SDS011;3539;47.982;12.238;2022-07-24T04:25:15;12.40;;;10.70;;
6997;SDS011;3539;47.982;12.238;2022-07-24T04:27:42;11.40;;;10.30;;
6997;SDS011;3539;47.982;12.238;2022-07-24T04:30:11;11.07;;;10.07;;
6997;SDS011;3539;47.982;12.238;2022-07-24T04:32:38;12.73;;;10.30;;
6997;SDS011;3539;47.982;12.238;2022-07-24T04:35:05;10.77;;;9.77;;
6997;SDS011;3539;47.982;12.238;2022-07-24T04:37:33;11.30;;;10.20;;
6997;SDS011;3539;47.982;12.238;2022-07-24T04:39:59;11.43;;;10.20;;
6997;SDS011;3539;47.982;12.238;2022-07-24T04:42:26;11.37;;;10.27;;
6997;SDS011;3539;47.982;12.238;2022-07-24T04:44:53;10.90;;;9.80;;
6997;SDS011;3539;47.982;12.238;2022-07-24T04:47:21;11.43;;;9.87;;
6997;SDS011;3539;47.982;12.238;2022-07-24T04:49:48;12.00;;;10.20;;
6997;SDS011;3539;47.982;12.238;2022-07-24T04:52:15;11.67;;;10.47;;
6997;SDS011;3539;47.982;12.238;2022-07-24T04:54:41;11.93;;;10.80;;
6997;SDS011;3539;47.982;12.238;2022-07-24T04:57:08;12.13;;;10.83;;
6997;SDS011;3539;47.982;12.238;2022-07-24T04:59:35;12.23;;;11.13;;
6997;SDS011;3539;47.982;12.238;2022-07-24T05:02:02;12.33;;;11.13;;
6997;SDS011;3539;47.982;12.238;2022-07-24T05:04:30;13.07;;;11.83;;
6997;SDS011;3539;47.982;12.238;2022-07-24T05:06:59;13.67;;;12.47;;
6997;SDS011;3539;47.982;12.238;2022-07-24T05:09:26;14.40;;;12.43;;
6997;SDS011;3539;47.982;12.238;2022-07-24T05:11:53;15.33;;;13.83;;
6997;SDS011;3539;47.982;12.238;2022-07-24T05:14:20;14.40;;;12.90;;
6997;SDS011;3539;47.982;12.238;2022-07-24T05:16:47;13.27;;;12.07;;
6997;SDS011;3539;47.982;12.238;2022-07-24T05:19:13;14.53;;;13.23;;
6997;SDS011;3539;47.982;12.238;2022-07-24T05:21:41;14.20;;;12.90;;
6997;SDS011;3539;47.982;12.238;2022-07-24T05:24:08;55.77;;;50.57;;
6997;SDS011;3539;47.982;12.238;2022-07-24T05:26:35;39.47;;;35.80;;
6997;SDS011;3539;47.982;12.238;2022-07-24T05:29:03;30.67;;;27.77;;
6997;SDS011;3539;47.982;12.238;2022-07-24T05:31:32;20.60;;;18.60;;
6997;SDS011;3539;47.982;12.238;2022-07-24T05:33:58;19.80;;;17.83;;
6997;SDS011;3539;47.982;12.238;2022-07-24T05:36:27;14.17;;;12.80;;
6997;SDS011;3539;47.982;12.238;2022-07-24T05:38:55;14.03;;;12.83;;
6997;SDS011;3539;47.982;12.238;2022-07-24T05:41:22;15.70;;;12.63;;
6997;SDS011;3539;47.982;12.238;2022-07-24T05:43:49;13.33;;;12.03;;
6997;SDS011;3539;47.982;12.238;2022-07-24T05:46:16;11.90;;;10.67;;
6997;SDS011;3539;47.982;12.238;2022-07-24T05:48:42;12.77;;;11.53;;
6997;SDS011;3539;47.982;12.238;2022-07-24T05:51:09;12.60;;;11.40;;
6997;SDS011;3539;47.982;12.238;2022-07-24T05:53:36;11.07;;;10.07;;
6997;SDS011;3539;47.982;12.238;2022-07-24T05:56:04;12.17;;;11.00;;
6997;SDS011;3539;47.982;12.238;2022-07-24T05:58:31;12.40;;;11.10;;
6997;SDS011;3539;47.982;12.238;2022-07-24T06:00:58;11.90;;;10.70;;
6997;SDS011;3539;47.982;12.238;2022-07-24T06:03:25;10.97;;;9.97;;
6997;SDS011;3539;47.982;12.238;2022-07-24T06:05:51;12.57;;;11.07;;
6997;SDS011;3539;47.982;12.238;2022-07-24T06:08:18;12.73;;;11.50;;
6997;SDS011;3539;47.982;12.238;2022-07-24T06:10:45;12.00;;;10.90;;
6997;SDS011;3539;47.982;12.238;2022-07-24T06:13:13;11.83;;;10.63;;
6997;SDS011;3539;47.982;12.238;2022-07-24T06:15:40;12.33;;;11.07;;
6997;SDS011;3539;47.982;12.238;2022-07-24T06:18:07;13.00;;;11.57;;
6997;SDS011;3539;47.982;12.238;2022-07-24T06:20:34;12.00;;;10.90;;
6997;SDS011;3539;47.982;12.238;2022-07-24T06:23:01;12.17;;;11.07;;
6997;SDS011;3539;47.982;12.238;2022-07-24T06:25:28;12.50;;;11.20;;
6997;SDS011;3539;47.982;12.238;2022-07-24T06:27:55;11.17;;;10.10;;
6997;SDS011;3539;47.982;12.238;2022-07-24T06:30:24;11.63;;;10.43;;
6997;SDS011;3539;47.982;12.238;2022-07-24T06:32:55;11.30;;;9.83;;
6997;SDS011;3539;47.982;12.238;2022-07-24T06:35:26;10.50;;;9.37;;
6997;SDS011;3539;47.982;12.238;2022-07-24T06:37:58;10.50;;;9.40;;
6997;SDS011;3539;47.982;12.238;2022-07-24T06:40:26;10.90;;;9.90;;
6997;SDS011;3539;47.982;12.238;2022-07-24T06:42:55;9.87;;;8.30;;
6997;SDS011;3539;47.982;12.238;2022-07-24T06:45:23;10.27;;;9.27;;
6997;SDS011;3539;47.982;12.238;2022-07-24T06:47:50;9.30;;;8.53;;
6997;SDS011;3539;47.982;12.238;2022-07-24T06:50:31;9.73;;;8.77;;
6997;SDS011;3539;47.982;12.238;2022-07-24T06:52:58;9.43;;;8.63;;
6997;SDS011;3539;47.982;12.238;2022-07-24T06:55:25;8.80;;;8.00;;
6997;SDS011;3539;47.982;12.238;2022-07-24T06:58:25;8.80;;;8.00;;
6997;SDS011;3539;47.982;12.238;2022-07-24T07:04:12;7.97;;;7.23;;
6997;SDS011;3539;47.982;12.238;2022-07-24T07:06:42;8.37;;;7.63;;
6997;SDS011;3539;47.982;12.238;2022-07-24T07:09:12;8.60;;;7.80;;
6997;SDS011;3539;47.982;12.238;2022-07-24T07:11:50;8.50;;;7.70;;
6997;SDS011;3539;47.982;12.238;2022-07-24T07:14:17;8.43;;;7.40;;
6997;SDS011;3539;47.982;12.238;2022-07-24T07:16:44;8.43;;;7.53;;
6997;SDS011;3539;47.982;12.238;2022-07-24T07:19:12;8.70;;;7.93;;
6997;SDS011;3539;47.982;12.238;2022-07-24T07:21:39;8.50;;;7.70;;
6997;SDS011;3539;47.982;12.238;2022-07-24T07:24:06;8.70;;;7.80;;
6997;SDS011;3539;47.982;12.238;2022-07-24T07:26:33;8.93;;;8.03;;
6997;SDS011;3539;47.982;12.238;2022-07-24T07:29:00;8.93;;;8.10;;
6997;SDS011;3539;47.982;12.238;2022-07-24T07:31:27;8.73;;;7.93;;
6997;SDS011;3539;47.982;12.238;2022-07-24T07:33:54;8.80;;;8.00;;
6997;SDS011;3539;47.982;12.238;2022-07-24T07:36:23;9.10;;;8.20;;
6997;SDS011;3539;47.982;12.238;2022-07-24T07:38:49;8.37;;;7.67;;
6997;SDS011;3539;47.982;12.238;2022-07-24T07:41:16;8.40;;;7.70;;
6997;SDS011;3539;47.982;12.238;2022-07-24T07:43:44;12.70;;;11.50;;
6997;SDS011;3539;47.982;12.238;2022-07-24T07:46:27;9.93;;;9.03;;
6997;SDS011;3539;47.982;12.238;2022-07-24T07:48:54;9.70;;;8.80;;
6997;SDS011;3539;47.982;12.238;2022-07-24T07:51:27;10.03;;;9.23;;
6997;SDS011;3539;47.982;12.238;2022-07-24T07:56:47;11.40;;;10.50;;
6997;SDS011;3539;47.982;12.238;2022-07-24T07:59:28;9.93;;;9.07;;
6997;SDS011;3539;47.982;12.238;2022-07-24T08:02:08;11.47;;;10.57;;
6997;SDS011;3539;47.982;12.238;2022-07-24T08:04:52;14.77;;;13.60;;
6997;SDS011;3539;47.982;12.238;2022-07-24T08:07:20;13.93;;;12.93;;
6997;SDS011;3539;47.982;12.238;2022-07-24T08:09:47;16.47;;;15.17;;
6997;SDS011;3539;47.982;12.238;2022-07-24T08:12:16;22.87;;;21.47;;
6997;SDS011;3539;47.982;12.238;2022-07-24T08:15:02;10.30;;;9.33;;
6997;SDS011;3539;47.982;12.238;2022-07-24T08:17:59;10.20;;;9.30;;
6997;SDS011;3539;47.982;12.238;2022-07-24T08:27:38;11.10;;;10.03;;
6997;SDS011;3539;47.982;12.238;2022-07-24T08:30:07;11.33;;;10.40;;
6997;SDS011;3539;47.982;12.238;2022-07-24T08:32:56;12.40;;;11.10;;
6997;SDS011;3539;47.982;12.238;2022-07-24T08:35:25;11.97;;;10.97;;
6997;SDS011;3539;47.982;12.238;2022-07-24T08:37:53;12.93;;;11.83;;
6997;SDS011;3539;47.982;12.238;2022-07-24T08:40:22;13.47;;;12.47;;
6997;SDS011;3539;47.982;12.238;2022-07-24T08:42:51;12.52;;;11.57;;
6997;SDS011;3539;47.982;12.238;2022-07-24T08:45:20;12.57;;;11.57;;
6997;SDS011;3539;47.982;12.238;2022-07-24T08:48:08;12.27;;;11.25;;
6997;SDS011;3539;47.982;12.238;2022-07-24T08:50:40;13.93;;;12.85;;
6997;SDS011;3539;47.982;12.238;2022-07-24T08:54:02;12.70;;;11.60;;
6997;SDS011;3539;47.982;12.238;2022-07-24T08:59:53;12.13;;;11.05;;
6997;SDS011;3539;47.982;12.238;2022-07-24T09:12:31;12.95;;;11.85;;
6997;SDS011;3539;47.982;12.238;2022-07-24T09:15:48;11.63;;;10.73;;
6997;SDS011;3539;47.982;12.238;2022-07-24T09:19:02;12.07;;;10.98;;
6997;SDS011;3539;47.982;12.238;2022-07-24T09:25:06;12.65;;;11.75;;
6997;SDS011;3539;47.982;12.238;2022-07-24T09:27:47;10.48;;;9.68;;
6997;SDS011;3539;47.982;12.238;2022-07-24T09:36:39;31.58;;;29.73;;
6997;SDS011;3539;47.982;12.238;2022-07-24T09:42:17;17.55;;;16.35;;
6997;SDS011;3539;47.982;12.238;2022-07-24T09:44:45;19.75;;;18.45;;
6997;SDS011;3539;47.982;12.238;2022-07-24T09:47:12;18.80;;;17.60;;
6997;SDS011;3539;47.982;12.238;2022-07-24T09:56:37;15.73;;;14.63;;
6997;SDS011;3539;47.982;12.238;2022-07-24T09:59:24;14.13;;;13.30;;
6997;SDS011;3539;47.982;12.238;2022-07-24T10:01:52;15.60;;;14.43;;
6997;SDS011;3539;47.982;12.238;2022-07-24T10:04:25;17.15;;;15.95;;
6997;SDS011;3539;47.982;12.238;2022-07-24T10:07:05;18.33;;;17.30;;
6997;SDS011;3539;47.982;12.238;2022-07-24T10:09:36;17.42;;;16.20;;
6997;SDS011;3539;47.982;12.238;2022-07-24T10:12:09;17.80;;;16.70;;
6997;SDS011;3539;47.982;12.238;2022-07-24T10:14:38;18.33;;;17.13;;
6997;SDS011;3539;47.982;12.238;2022-07-24T10:17:05;17.40;;;16.33;;
6997;SDS011;3539;47.982;12.238;2022-07-24T10:19:36;17.27;;;16.17;;
6997;SDS011;3539;47.982;12.238;2022-07-24T10:22:08;18.50;;;17.50;;
6997;SDS011;3539;47.982;12.238;2022-07-24T10:27:34;18.02;;;16.92;;
6997;SDS011;3539;47.982;12.238;2022-07-24T10:30:06;15.93;;;14.90;;
6997;SDS011;3539;47.982;12.238;2022-07-24T10:32:35;16.98;;;15.68;;
6997;SDS011;3539;47.982;12.238;2022-07-24T10:35:12;15.40;;;14.30;;
6997;SDS011;3539;47.982;12.238;2022-07-24T10:40:36;13.50;;;12.70;;
6997;SDS011;3539;47.982;12.238;2022-07-24T10:43:14;12.98;;;12.15;;
6997;SDS011;3539;47.982;12.238;2022-07-24T10:45:42;15.57;;;14.63;;
6997;SDS011;3539;47.982;12.238;2022-07-24T10:48:27;15.75;;;14.85;;
6997;SDS011;3539;47.982;12.238;2022-07-24T10:51:02;16.80;;;15.80;;
6997;SDS011;3539;47.982;12.238;2022-07-24T10:53:43;17.25;;;16.05;;
6997;SDS011;3539;47.982;12.238;2022-07-24T10:56:37;18.23;;;16.98;;
6997;SDS011;3539;47.982;12.238;2022-07-24T10:59:14;17.88;;;16.67;;
6997;SDS011;3539;47.982;12.238;2022-07-24T11:01:43;16.48;;;15.38;;
6997;SDS011;3539;47.982;12.238;2022-07-24T11:04:26;17.20;;;16.15;;
6997;SDS011;3539;47.982;12.238;2022-07-24T11:06:59;18.13;;;16.83;;
6997;SDS011;3539;47.982;12.238;2022-07-24T11:09:53;16.73;;;15.63;;
6997;SDS011;3539;47.982;12.238;2022-07-24T11:15:41;16.95;;;16.05;;
6997;SDS011;3539;47.982;12.238;2022-07-24T11:22:06;17.52;;;16.38;;
6997;SDS011;3539;47.982;12.238;2022-07-24T11:24:42;17.17;;;16.10;;
6997;SDS011;3539;47.982;12.238;2022-07-24T11:27:42;17.13;;;16.13;;
6997;SDS011;3539;47.982;12.238;2022-07-24T11:30:20;17.77;;;16.77;;
6997;SDS011;3539;47.982;12.238;2022-07-24T11:32:52;14.95;;;13.98;;
6997;SDS011;3539;47.982;12.238;2022-07-24T11:35:31;16.95;;;15.85;;
6997;SDS011;3539;47.982;12.238;2022-07-24T11:38:03;20.65;;;19.42;;
6997;SDS011;3539;47.982;12.238;2022-07-24T11:40:34;19.60;;;18.50;;
6997;SDS011;3539;47.982;12.238;2022-07-24T11:43:04;18.55;;;17.55;;
6997;SDS011;3539;47.982;12.238;2022-07-24T11:45:50;17.13;;;16.13;;
6997;SDS011;3539;47.982;12.238;2022-07-24T11:48:24;17.88;;;16.80;;
6997;SDS011;3539;47.982;12.238;2022-07-24T11:51:05;15.88;;;14.98;;
6997;SDS011;3539;47.982;12.238;2022-07-24T11:53:34;16.13;;;15.02;;
6997;SDS011;3539;47.982;12.238;2022-07-24T11:56:10;17.88;;;16.77;;
6997;SDS011;3539;47.982;12.238;2022-07-24T11:58:41;16.80;;;15.88;;
6997;SDS011;3539;47.982;12.238;2022-07-24T12:01:19;16.88;;;15.95;;
6997;SDS011;3539;47.982;12.238;2022-07-24T12:03:49;15.68;;;14.68;;
6997;SDS011;3539;47.982;12.238;2022-07-24T12:06:17;19.52;;;18.38;;
6997;SDS011;3539;47.982;12.238;2022-07-24T12:08:49;18.95;;;17.75;;
6997;SDS011;3539;47.982;12.238;2022-07-24T12:11:39;17.15;;;15.88;;
6997;SDS011;3539;47.982;12.238;2022-07-24T12:15:00;18.80;;;17.42;;
6997;SDS011;3539;47.982;12.238;2022-07-24T12:27:33;16.77;;;15.88;;
6997;SDS011;3539;47.982;12.238;2022-07-24T12:30:02;16.38;;;15.38;;
6997;SDS011;3539;47.982;12.238;2022-07-24T12:32:35;16.88;;;15.88;;
6997;SDS011;3539;47.982;12.238;2022-07-24T12:35:10;16.08;;;15.18;;
6997;SDS011;3539;47.982;12.238;2022-07-24T12:37:38;17.15;;;16.00;;
6997;SDS011;3539;47.982;12.238;2022-07-24T12:40:07;17.67;;;16.67;;
6997;SDS011;3539;47.982;12.238;2022-07-24T12:42:38;17.27;;;16.13;;
6997;SDS011;3539;47.982;12.238;2022-07-24T12:45:08;18.42;;;17.35;;
6997;SDS011;3539;47.982;12.238;2022-07-24T12:50:36;16.92;;;15.93;;
6997;SDS011;3539;47.982;12.238;2022-07-24T12:53:04;17.80;;;16.60;;
6997;SDS011;3539;47.982;12.238;2022-07-24T12:55:32;19.25;;;18.20;;
6997;SDS011;3539;47.982;12.238;2022-07-24T12:58:00;19.35;;;18.25;;
6997;SDS011;3539;47.982;12.238;2022-07-24T13:00:27;19.17;;;17.77;;
6997;SDS011;3539;47.982;12.238;2022-07-24T13:02:54;18.30;;;17.20;;
6997;SDS011;3539;47.982;12.238;2022-07-24T13:05:35;28.43;;;26.90;;
6997;SDS011;3539;47.982;12.238;2022-07-24T13:08:02;17.63;;;16.55;;
6997;SDS011;3539;47.982;12.238;2022-07-24T13:10:29;18.90;;;17.85;;
6997;SDS011;3539;47.982;12.238;2022-07-24T13:12:58;20.73;;;19.52;;
6997;SDS011;3539;47.982;12.238;2022-07-24T13:15:25;18.33;;;17.13;;
6997;SDS011;3539;47.982;12.238;2022-07-24T13:17:53;18.42;;;17.33;;
6997;SDS011;3539;47.982;12.238;2022-07-24T13:20:23;16.88;;;15.65;;
6997;SDS011;3539;47.982;12.238;2022-07-24T13:22:51;17.50;;;16.55;;
6997;SDS011;3539;47.982;12.238;2022-07-24T13:25:18;18.15;;;17.05;;
6997;SDS011;3539;47.982;12.238;2022-07-24T13:27:46;17.08;;;16.00;;
6997;SDS011;3539;47.982;12.238;2022-07-24T13:30:15;18.38;;;17.27;;
6997;SDS011;3539;47.982;12.238;2022-07-24T13:32:42;17.67;;;16.60;;
6997;SDS011;3539;47.982;12.238;2022-07-24T13:35:09;17.08;;;16.08;;
6997;SDS011;3539;47.982;12.238;2022-07-24T13:37:36;17.98;;;16.98;;
6997;SDS011;3539;47.982;12.238;2022-07-24T13:40:04;17.70;;;16.42;;
6997;SDS011;3539;47.982;12.238;2022-07-24T13:42:33;17.38;;;16.27;;
6997;SDS011;3539;47.982;12.238;2022-07-24T13:45:00;20.38;;;19.17;;
6997;SDS011;3539;47.982;12.238;2022-07-24T13:47:34;17.27;;;16.17;;
6997;SDS011;3539;47.982;12.238;2022-07-24T13:50:01;15.45;;;14.35;;
6997;SDS011;3539;47.982;12.238;2022-07-24T13:52:28;16.77;;;15.68;;
6997;SDS011;3539;47.982;12.238;2022-07-24T13:54:56;14.70;;;13.85;;
6997;SDS011;3539;47.982;12.238;2022-07-24T13:57:23;14.73;;;13.73;;
6997;SDS011;3539;47.982;12.238;2022-07-24T13:59:50;16.00;;;14.90;;
6997;SDS011;3539;47.982;12.238;2022-07-24T14:02:19;15.55;;;14.43;;
6997;SDS011;3539;47.982;12.238;2022-07-24T14:04:47;15.88;;;14.88;;
6997;SDS011;3539;47.982;12.238;2022-07-24T14:07:14;15.05;;;14.15;;
6997;SDS011;3539;47.982;12.238;2022-07-24T14:09:41;15.95;;;14.82;;
6997;SDS011;3539;47.982;12.238;2022-07-24T14:12:12;13.73;;;12.75;;
6997;SDS011;3539;47.982;12.238;2022-07-24T14:14:42;15.00;;;13.93;;
6997;SDS011;3539;47.982;12.238;2022-07-24T14:17:09;14.23;;;13.38;;
6997;SDS011;3539;47.982;12.238;2022-07-24T14:19:36;14.57;;;13.57;;
6997;SDS011;3539;47.982;12.238;2022-07-24T14:22:04;15.25;;;14.25;;
6997;SDS011;3539;47.982;12.238;2022-07-24T14:24:31;14.82;;;13.73;;
6997;SDS011;3539;47.982;12.238;2022-07-24T14:26:58;16.83;;;15.82;;
6997;SDS011;3539;47.982;12.238;2022-07-24T14:29:25;14.13;;;13.23;;
6997;SDS011;3539;47.982;12.238;2022-07-24T14:31:54;15.82;;;14.70;;
6997;SDS011;3539;47.982;12.238;2022-07-24T14:34:21;15.85;;;14.57;;
6997;SDS011;3539;47.982;12.238;2022-07-24T14:36:47;15.82;;;14.88;;
6997;SDS011;3539;47.982;12.238;2022-07-24T14:39:15;16.88;;;15.85;;
6997;SDS011;3539;47.982;12.238;2022-07-24T14:41:44;16.60;;;15.50;;
6997;SDS011;3539;47.982;12.238;2022-07-24T14:44:11;17.08;;;15.98;;
6997;SDS011;3539;47.982;12.238;2022-07-24T14:46:38;16.13;;;14.98;;
6997;SDS011;3539;47.982;12.238;2022-07-24T14:49:05;16.10;;;14.73;;
6997;SDS011;3539;47.982;12.238;2022-07-24T14:51:32;17.42;;;16.13;;
6997;SDS011;3539;47.982;12.238;2022-07-24T14:53:58;17.25;;;15.80;;
6997;SDS011;3539;47.982;12.238;2022-07-24T14:56:27;16.40;;;15.35;;
6997;SDS011;3539;47.982;12.238;2022-07-24T14:58:53;17.00;;;15.98;;
6997;SDS011;3539;47.982;12.238;2022-07-24T15:01:21;16.80;;;15.80;;
6997;SDS011;3539;47.982;12.238;2022-07-24T15:03:48;14.15;;;13.05;;
6997;SDS011;3539;47.982;12.238;2022-07-24T15:06:16;14.32;;;13.52;;
6997;SDS011;3539;47.982;12.238;2022-07-24T15:08:43;28.42;;;26.80;;
6997;SDS011;3539;47.982;12.238;2022-07-24T15:11:11;16.85;;;15.85;;
6997;SDS011;3539;47.982;12.238;2022-07-24T15:13:41;15.50;;;14.35;;
6997;SDS011;3539;47.982;12.238;2022-07-24T15:16:07;15.15;;;14.25;;
6997;SDS011;3539;47.982;12.238;2022-07-24T15:18:38;15.02;;;14.02;;
6997;SDS011;3539;47.982;12.238;2022-07-24T15:21:05;17.63;;;16.45;;
6997;SDS011;3539;47.982;12.238;2022-07-24T15:23:32;15.68;;;14.50;;
6997;SDS011;3539;47.982;12.238;2022-07-24T15:25:59;14.88;;;13.98;;
6997;SDS011;3539;47.982;12.238;2022-07-24T15:28:26;15.73;;;14.45;;
6997;SDS011;3539;47.982;12.238;2022-07-24T15:30:58;16.42;;;15.05;;
6997;SDS011;3539;47.982;12.238;2022-07-24T15:33:25;14.80;;;13.90;;
6997;SDS011;3539;47.982;12.238;2022-07-24T15:35:52;17.65;;;16.65;;
6997;SDS011;3539;47.982;12.238;2022-07-24T15:38:19;17.08;;;16.05;;
6997;SDS011;3539;47.982;12.238;2022-07-24T15:40:46;16.13;;;15.02;;
6997;SDS011;3539;47.982;12.238;2022-07-24T15:43:17;15.43;;;14.43;;
6997;SDS011;3539;47.982;12.238;2022-07-24T15:45:45;15.80;;;14.60;;
6997;SDS011;3539;47.982;12.238;2022-07-24T15:48:13;16.20;;;15.18;;
6997;SDS011;3539;47.982;12.238;2022-07-24T15:50:43;14.73;;;13.73;;
6997;SDS011;3539;47.982;12.238;2022-07-24T15:53:10;17.08;;;15.73;;
6997;SDS011;3539;47.982;12.238;2022-07-24T15:55:36;13.85;;;12.73;;
6997;SDS011;3539;47.982;12.238;2022-07-24T15:58:03;13.75;;;12.95;;
6997;SDS011;3539;47.982;12.238;2022-07-24T16:00:30;15.07;;;14.10;;
6997;SDS011;3539;47.982;12.238;2022-07-24T16:02:59;16.58;;;15.57;;
6997;SDS011;3539;47.982;12.238;2022-07-24T16:05:28;14.80;;;13.80;;